Time;durP1;ratioP1;P1;durP2;ratioP2;P2;SDS_P1;SDS_P2;PMS_P1;PMS_P2;Temp;Humidity;BMP_temperature;BMP_pressure;BME280_temperature;BME280_humidity;BME280_pressure;Samples;Min_cycle;Max_cycle;Signal;HPM_P1;HPM_P2
2021/04/06 00:00:46;;;;;;;17.52;7.28;;;0.20;99.90;;;;;;2087259;28;20021;-63
2021/04/06 00:01:48;;;;;;;11.05;5.63;;;0.10;99.90;;;;;;2086081;28;20061;-63
2021/04/06 00:02:58;;;;;;;17.75;6.88;;;0.10;99.90;;;;;;2086459;28;20496;-63
2021/04/06 00:03:59;;;;;;;12.77;6.72;;;0.10;99.90;;;;;;2087386;28;20029;-63
2021/04/06 00:05:04;;;;;;;14.20;6.63;;;0.00;99.90;;;;;;2087082;28;20013;-63
2021/04/06 00:06:06;;;;;;;15.73;6.85;;;-0.10;99.90;;;;;;2078823;28;20021;-64
2021/04/06 00:07:09;;;;;;;24.35;7.25;;;-0.10;99.90;;;;;;2085077;28;20017;-64
2021/04/06 00:08:10;;;;;;;14.20;6.50;;;-0.20;99.90;;;;;;2080960;28;20029;-63
2021/04/06 00:09:15;;;;;;;16.60;7.05;;;-0.20;99.90;;;;;;2081854;28;20141;-63
2021/04/06 00:10:29;;;;;;;13.13;6.55;;;-0.30;99.90;;;;;;2090739;28;20025;-63
2021/04/06 00:11:30;;;;;;;13.30;6.68;;;-0.30;99.90;;;;;;2087330;28;20080;-63
2021/04/06 00:12:31;;;;;;;14.82;6.85;;;-0.30;99.90;;;;;;2086315;28;20040;-64
2021/04/06 00:13:35;;;;;;;17.23;7.18;;;-0.30;99.90;;;;;;2080479;28;20026;-63
2021/04/06 00:14:38;;;;;;;15.05;6.88;;;-0.30;99.90;;;;;;2073743;28;20034;-63
2021/04/06 00:15:41;;;;;;;14.88;7.05;;;-0.40;99.90;;;;;;2064405;28;20502;-64
2021/04/06 00:16:44;;;;;;;16.45;7.53;;;-0.40;99.90;;;;;;2073177;28;20582;-64
2021/04/06 00:17:48;;;;;;;18.42;7.63;;;-0.40;99.90;;;;;;2080278;28;20025;-64
2021/04/06 00:18:52;;;;;;;14.40;6.35;;;-0.40;99.90;;;;;;2078463;28;20025;-64
2021/04/06 00:19:56;;;;;;;13.40;5.97;;;-0.40;99.90;;;;;;2072652;28;20089;-64
2021/04/06 00:21:00;;;;;;;13.23;6.22;;;-0.40;99.90;;;;;;2079683;28;20064;-64
2021/04/06 00:22:04;;;;;;;15.57;6.10;;;-0.40;99.90;;;;;;2080401;28;20048;-64
2021/04/06 00:23:07;;;;;;;16.20;6.18;;;-0.40;99.90;;;;;;2080636;28;20033;-64
2021/04/06 00:24:09;;;;;;;12.52;6.13;;;-0.40;99.90;;;;;;2088392;28;20013;-64
2021/04/06 00:25:15;;;;;;;14.98;6.07;;;-0.40;99.90;;;;;;2081110;28;20088;-64
2021/04/06 00:26:16;;;;;;;15.10;6.43;;;-0.40;99.90;;;;;;2081218;28;20051;-64
2021/04/06 00:27:18;;;;;;;11.93;5.75;;;-0.40;99.90;;;;;;2080679;28;20025;-64
2021/04/06 00:28:29;;;;;;;16.90;6.53;;;-0.40;99.90;;;;;;2080844;28;20025;-64
2021/04/06 00:29:34;;;;;;;13.68;5.72;;;-0.40;99.90;;;;;;2087884;28;20448;-64
2021/04/06 00:30:36;;;;;;;15.25;6.50;;;-0.40;99.90;;;;;;2089886;28;20019;-64
2021/04/06 00:31:40;;;;;;;14.32;5.45;;;-0.40;99.90;;;;;;2073156;28;20038;-64
2021/04/06 00:32:42;;;;;;;12.13;6.07;;;-0.40;99.90;;;;;;2077713;28;20027;-64
2021/04/06 00:33:48;;;;;;;15.77;6.22;;;-0.40;99.90;;;;;;2073298;28;20524;-64
2021/04/06 00:34:52;;;;;;;9.77;5.60;;;-0.40;99.90;;;;;;2072646;28;20081;-64
2021/04/06 00:35:57;;;;;;;13.10;5.75;;;-0.40;99.90;;;;;;2077381;28;20080;-64
2021/04/06 00:37:04;;;;;;;14.45;5.70;;;-0.40;99.90;;;;;;2080407;28;20021;-64
2021/04/06 00:38:11;;;;;;;17.65;5.93;;;-0.40;99.90;;;;;;2073150;28;20058;-64
2021/04/06 00:39:12;;;;;;;11.48;5.75;;;-0.40;99.90;;;;;;2072910;28;20062;-64
2021/04/06 00:40:15;;;;;;;15.25;6.35;;;-0.40;99.90;;;;;;2080789;28;20084;-64
2021/04/06 00:41:16;;;;;;;16.70;6.32;;;-0.40;99.90;;;;;;2081061;28;20101;-64
2021/04/06 00:42:20;;;;;;;12.27;5.68;;;-0.50;99.90;;;;;;2081388;28;20659;-64
2021/04/06 00:43:21;;;;;;;9.77;5.20;;;-0.50;99.90;;;;;;2073178;28;20045;-64
2021/04/06 00:44:22;;;;;;;11.43;5.82;;;-0.50;99.90;;;;;;2077642;28;20389;-64
2021/04/06 00:45:23;;;;;;;16.05;6.20;;;-0.40;99.90;;;;;;2074530;28;20018;-64
2021/04/06 00:46:27;;;;;;;13.65;6.07;;;-0.40;99.90;;;;;;2079965;28;20413;-64
2021/04/06 00:47:30;;;;;;;18.50;6.63;;;-0.30;99.90;;;;;;2072662;28;20026;-64
2021/04/06 00:48:32;;;;;;;17.05;6.70;;;-0.30;99.90;;;;;;2080807;28;20025;-64
2021/04/06 00:49:34;;;;;;;18.00;5.95;;;-0.30;99.90;;;;;;2081334;28;20030;-64
2021/04/06 00:50:36;;;;;;;16.02;6.85;;;-0.20;99.90;;;;;;2081349;28;20029;-64
2021/04/06 00:51:39;;;;;;;14.18;6.30;;;-0.20;99.90;;;;;;2081179;28;20455;-64
2021/04/06 00:52:44;;;;;;;16.48;6.50;;;-0.30;99.90;;;;;;2076277;28;20078;-64
2021/04/06 00:53:55;;;;;;;12.13;5.88;;;-0.30;99.90;;;;;;2073259;28;20104;-64
2021/04/06 00:54:57;;;;;;;13.23;5.85;;;-0.30;99.90;;;;;;2080906;28;20033;-63
2021/04/06 00:55:58;;;;;;;13.40;5.75;;;-0.30;99.90;;;;;;2087706;28;20084;-63
2021/04/06 00:56:59;;;;;;;13.97;5.70;;;-0.40;99.90;;;;;;2081842;28;20646;-63
2021/04/06 00:58:00;;;;;;;13.77;5.68;;;-0.40;99.90;;;;;;2080516;28;20260;-63
2021/04/06 00:59:06;;;;;;;13.95;6.28;;;-0.40;99.90;;;;;;2080632;28;20025;-63
2021/04/06 01:00:17;;;;;;;11.85;5.90;;;-0.50;99.90;;;;;;2073559;28;20669;-63
2021/04/06 01:01:27;;;;;;;12.13;5.88;;;-0.50;99.90;;;;;;2080244;28;20026;-63
2021/04/06 01:02:28;;;;;;;12.10;6.05;;;-0.50;99.90;;;;;;2072065;28;20032;-64
2021/04/06 01:03:29;;;;;;;11.00;5.45;;;-0.50;99.90;;;;;;2071752;28;20029;-63
2021/04/06 01:04:33;;;;;;;12.60;6.00;;;-0.60;99.90;;;;;;2073029;28;20448;-63
2021/04/06 01:05:55;;;;;;;21.27;6.07;;;-0.60;99.90;;;;;;2076585;28;20060;-63
2021/04/06 01:07:06;;;;;;;17.90;5.85;;;-0.70;99.90;;;;;;2079922;28;20048;-63
2021/04/06 01:08:08;;;;;;;11.77;6.03;;;-0.70;99.90;;;;;;2080044;28;20010;-64
2021/04/06 01:09:08;;;;;;;17.27;6.65;;;-0.70;99.90;;;;;;2079931;28;20029;-64
2021/04/06 01:10:10;;;;;;;14.60;6.60;;;-0.70;99.90;;;;;;2079659;28;20022;-64
2021/04/06 01:11:11;;;;;;;15.00;6.82;;;-0.70;99.90;;;;;;2079795;28;20025;-64
2021/04/06 01:12:19;;;;;;;17.50;6.60;;;-0.70;99.90;;;;;;2086472;28;20021;-63
2021/04/06 01:13:22;;;;;;;11.30;5.90;;;-0.70;99.90;;;;;;2072273;28;20022;-64
2021/04/06 01:14:23;;;;;;;11.73;5.72;;;-0.80;99.90;;;;;;2071698;28;20018;-64
2021/04/06 01:15:25;;;;;;;13.02;6.00;;;-0.70;99.90;;;;;;2076824;28;20029;-64
2021/04/06 01:16:26;;;;;;;14.88;6.18;;;-0.80;99.90;;;;;;2080632;28;20025;-64
2021/04/06 01:17:29;;;;;;;14.88;6.43;;;-0.80;99.90;;;;;;2080487;28;20053;-64
2021/04/06 01:18:30;;;;;;;13.07;6.45;;;-0.80;99.90;;;;;;2080669;28;20018;-64
2021/04/06 01:19:32;;;;;;;16.25;6.55;;;-0.80;99.90;;;;;;2080838;28;20108;-64
2021/04/06 01:20:32;;;;;;;18.02;7.80;;;-0.90;99.90;;;;;;2074315;28;20037;-64
2021/04/06 01:21:34;;;;;;;15.15;6.50;;;-0.90;99.90;;;;;;2071762;28;20034;-64
2021/04/06 01:22:36;;;;;;;15.15;6.43;;;-0.90;99.90;;;;;;2075642;28;20018;-64
2021/04/06 01:23:38;;;;;;;15.25;7.13;;;-0.80;99.90;;;;;;2079776;28;20026;-64
2021/04/06 01:24:39;;;;;;;12.98;6.32;;;-0.80;99.90;;;;;;2078172;28;20044;-63
2021/04/06 01:25:45;;;;;;;15.55;6.53;;;-0.90;99.90;;;;;;2077291;28;20036;-64
2021/04/06 01:26:48;;;;;;;12.48;5.95;;;-0.90;99.90;;;;;;2079841;28;20105;-66
2021/04/06 01:27:55;;;;;;;12.95;6.35;;;-0.90;99.90;;;;;;2087803;28;20678;-64
2021/04/06 01:28:56;;;;;;;13.60;6.00;;;-0.90;99.90;;;;;;2076171;28;20018;-64
2021/04/06 01:29:57;;;;;;;13.13;6.10;;;-0.90;99.90;;;;;;2080639;28;20537;-64
2021/04/06 01:31:00;;;;;;;16.55;6.40;;;-0.90;99.90;;;;;;2080101;28;20473;-64
2021/04/06 01:32:00;;;;;;;;;;;-0.90;99.90;;;;;;2080783;28;20033;-64
2021/04/06 01:33:01;;;;;;;18.08;5.68;;;-0.90;99.90;;;;;;2076266;28;20436;-64
2021/04/06 01:34:03;;;;;;;10.65;5.95;;;-1.00;99.90;;;;;;2072852;28;20420;-64
2021/04/06 01:35:07;;;;;;;15.95;6.05;;;-1.00;99.90;;;;;;2072233;28;20513;-64
2021/04/06 01:36:08;;;;;;;12.73;5.97;;;-1.00;99.90;;;;;;2079593;28;20036;-64
2021/04/06 01:37:09;;;;;;;15.10;6.35;;;-1.00;99.90;;;;;;2071436;28;20034;-64
2021/04/06 01:38:11;;;;;;;15.10;5.88;;;-1.00;99.90;;;;;;2080228;28;20017;-63
2021/04/06 01:39:14;;;;;;;14.23;6.15;;;-1.10;99.90;;;;;;2080793;28;20025;-64
2021/04/06 01:40:16;;;;;;;12.77;6.05;;;-1.10;99.90;;;;;;2072519;28;20034;-64
2021/04/06 01:41:18;;;;;;;11.65;6.20;;;-1.10;99.90;;;;;;2072582;28;20025;-64
2021/04/06 01:42:21;;;;;;;13.63;5.90;;;-1.20;99.90;;;;;;2074396;28;20088;-64
2021/04/06 01:43:26;;;;;;;12.98;6.97;;;-1.10;99.90;;;;;;2080590;28;20488;-64
2021/04/06 01:44:27;;;;;;;16.08;6.00;;;-1.20;99.90;;;;;;2080463;28;20025;-64
2021/04/06 01:45:30;;;;;;;14.35;5.72;;;-1.20;99.90;;;;;;2080691;28;20029;-64
2021/04/06 01:46:37;;;;;;;14.57;5.63;;;-1.20;99.90;;;;;;2080714;28;20026;-64
2021/04/06 01:47:39;;;;;;;15.73;6.50;;;-1.20;99.90;;;;;;2080417;28;20104;-63
2021/04/06 01:48:40;;;;;;;14.00;5.95;;;-1.20;99.90;;;;;;2073008;28;20058;-63
2021/04/06 01:49:42;;;;;;;13.60;4.45;;;-1.20;99.90;;;;;;2079119;28;20086;-63
2021/04/06 01:50:50;;;;;;;15.60;6.68;;;-1.20;99.90;;;;;;2075636;28;20030;-63
2021/04/06 01:51:56;;;;;;;12.32;6.13;;;-1.20;99.90;;;;;;2080915;28;20034;-63
2021/04/06 01:52:57;;;;;;;17.20;6.78;;;-1.20;99.90;;;;;;2080877;28;20408;-64
2021/04/06 01:53:58;;;;;;;12.38;6.47;;;-1.20;99.90;;;;;;2080936;28;20029;-63
2021/04/06 01:55:05;;;;;;;16.98;5.65;;;-1.20;99.90;;;;;;2080668;28;20021;-65
2021/04/06 01:56:11;;;;;;;15.10;7.03;;;-1.20;99.90;;;;;;2088178;28;20024;-64
2021/04/06 01:57:18;;;;;;;16.77;6.28;;;-1.20;99.90;;;;;;2073120;28;20026;-63
2021/04/06 01:58:21;;;;;;;15.90;6.07;;;-1.20;99.90;;;;;;2075690;28;20029;-63
2021/04/06 01:59:40;;;;;;;14.95;5.95;;;-1.20;99.90;;;;;;2079802;28;20017;-63
2021/04/06 02:01:04;;;;;;;15.68;6.00;;;-1.30;99.90;;;;;;2071956;28;20041;-64
2021/04/06 02:02:05;;;;;;;13.27;5.75;;;-1.30;99.90;;;;;;2078213;28;20073;-63
2021/04/06 02:03:10;;;;;;;10.38;5.78;;;-1.30;99.90;;;;;;2064791;28;20046;-63
2021/04/06 02:04:10;;;;;;;14.27;5.72;;;-1.20;99.90;;;;;;2080443;28;20017;-63
2021/04/06 02:05:13;;;;;;;14.05;5.50;;;-1.20;99.90;;;;;;2080555;28;20366;-63
2021/04/06 02:06:15;;;;;;;16.95;6.70;;;-1.20;99.90;;;;;;2073029;28;20017;-63
2021/04/06 02:07:19;;;;;;;11.65;5.32;;;-1.20;99.90;;;;;;2073421;28;20022;-63
2021/04/06 02:08:22;;;;;;;11.95;5.32;;;-1.20;99.90;;;;;;2073712;28;20029;-63
2021/04/06 02:09:23;;;;;;;12.73;5.90;;;-1.10;99.90;;;;;;2079983;28;20653;-65
2021/04/06 02:10:24;;;;;;;11.05;5.05;;;-1.00;99.90;;;;;;2080091;28;20013;-65
2021/04/06 02:11:31;;;;;;;12.63;4.65;;;-0.90;99.90;;;;;;2080687;28;20462;-63
2021/04/06 02:12:42;;;;;;;12.73;4.85;;;-0.80;99.90;;;;;;2080796;28;20033;-63
2021/04/06 02:13:42;;;;;;;12.32;5.00;;;-0.70;99.90;;;;;;2080494;28;20026;-63
2021/04/06 02:14:43;;;;;;;12.30;4.88;;;-0.70;99.90;;;;;;2074437;28;20093;-64
2021/04/06 02:15:56;;;;;;;9.82;4.95;;;-0.60;99.90;;;;;;2074378;28;20046;-63
2021/04/06 02:17:01;;;;;;;9.48;4.53;;;-0.60;99.90;;;;;;2075362;28;20017;-64
2021/04/06 02:18:02;;;;;;;11.27;4.88;;;-0.50;99.90;;;;;;2080578;28;20063;-63
2021/04/06 02:19:03;;;;;;;9.85;5.05;;;-0.50;99.90;;;;;;2080355;28;20518;-63
2021/04/06 02:20:04;;;;;;;10.77;4.93;;;-0.50;99.90;;;;;;2074971;28;20060;-64
2021/04/06 02:21:06;;;;;;;12.60;4.95;;;-0.50;99.90;;;;;;2075236;28;20014;-64
2021/04/06 02:22:17;;;;;;;14.02;4.80;;;-0.50;99.90;;;;;;2075967;28;20035;-64
2021/04/06 02:23:18;;;;;;;10.45;4.53;;;-0.50;99.90;;;;;;2080702;28;20022;-64
2021/04/06 02:24:30;;;;;;;8.95;4.18;;;-0.50;99.90;;;;;;2079850;28;20036;-63
2021/04/06 02:25:31;;;;;;;9.18;4.50;;;-0.50;99.90;;;;;;2071155;28;20084;-63
2021/04/06 02:26:32;;;;;;;11.80;4.25;;;-0.50;99.90;;;;;;2079200;28;20134;-63
2021/04/06 02:27:34;;;;;;;14.70;5.55;;;-0.50;99.90;;;;;;2079898;28;20539;-63
2021/04/06 02:28:35;;;;;;;11.45;4.47;;;-0.50;99.90;;;;;;2078586;28;20030;-63
2021/04/06 02:29:38;;;;;;;13.07;4.25;;;-0.50;99.90;;;;;;2072937;28;20547;-63
2021/04/06 02:30:39;;;;;;;11.80;4.47;;;-0.50;99.90;;;;;;2073119;28;20021;-63
2021/04/06 02:31:40;;;;;;;12.32;4.03;;;-0.40;99.90;;;;;;2072346;28;20644;-63
2021/04/06 02:32:41;;;;;;;13.13;4.10;;;-0.30;99.90;;;;;;2078969;28;20040;-64
2021/04/06 02:33:46;;;;;;;9.95;4.05;;;-0.30;99.90;;;;;;2079853;28;20894;-64
2021/04/06 02:34:49;;;;;;;11.93;3.92;;;-0.20;99.90;;;;;;2078615;28;20018;-63
2021/04/06 02:36:09;;;;;;;7.32;3.55;;;-0.20;99.90;;;;;;2078554;28;20432;-64
2021/04/06 02:37:21;;;;;;;10.15;4.38;;;-0.10;99.90;;;;;;2073882;28;20109;-64
2021/04/06 02:38:22;;;;;;;9.95;3.92;;;0.00;99.90;;;;;;2080613;28;20026;-64
2021/04/06 02:39:23;;;;;;;12.38;3.60;;;0.00;99.90;;;;;;2080569;28;20035;-64
2021/04/06 02:40:25;;;;;;;15.88;4.05;;;0.00;99.90;;;;;;2080549;28;20022;-64
2021/04/06 02:41:30;;;;;;;10.98;3.78;;;0.00;99.90;;;;;;2079795;28;20036;-64
2021/04/06 02:42:37;;;;;;;7.63;3.35;;;-0.10;99.90;;;;;;2079751;28;20128;-64
2021/04/06 02:43:55;;;;;;;12.57;4.18;;;-0.10;99.90;;;;;;2074520;28;20030;-64
2021/04/06 02:45:13;;;;;;;8.02;3.90;;;-0.10;99.90;;;;;;2071757;28;20049;-64
2021/04/06 02:46:18;;;;;;;12.10;5.00;;;-0.10;99.90;;;;;;2078606;28;20026;-64
2021/04/06 02:47:19;;;;;;;12.77;4.45;;;-0.10;99.90;;;;;;2080285;28;20601;-64
2021/04/06 02:48:19;;;;;;;11.68;4.82;;;-0.10;99.90;;;;;;2080343;28;20017;-64
2021/04/06 02:49:20;;;;;;;14.40;5.13;;;-0.20;99.90;;;;;;2080144;28;20100;-64
2021/04/06 02:50:25;;;;;;;18.00;5.38;;;-0.20;99.90;;;;;;2080693;28;20424;-64
2021/04/06 02:51:27;;;;;;;18.70;6.22;;;-0.30;99.90;;;;;;2080358;28;20071;-64
2021/04/06 02:52:28;;;;;;;15.43;5.47;;;-0.30;99.90;;;;;;2080447;28;20079;-64
2021/04/06 02:53:31;;;;;;;11.45;5.50;;;-0.40;99.90;;;;;;2074533;28;20053;-64
2021/04/06 02:54:32;;;;;;;11.48;4.72;;;-0.40;99.90;;;;;;2076654;28;20083;-64
2021/04/06 02:55:34;;;;;;;12.68;4.53;;;-0.50;99.90;;;;;;2081443;28;20020;-64
2021/04/06 02:56:38;;;;;;;11.80;4.95;;;-0.60;99.90;;;;;;2084572;28;20121;-65
2021/04/06 02:57:51;;;;;;;11.45;4.93;;;-0.60;99.90;;;;;;2079780;28;20025;-64
2021/04/06 02:58:51;;;;;;;11.43;4.03;;;-0.70;99.90;;;;;;2079826;28;20112;-64
2021/04/06 02:59:53;;;;;;;10.93;4.55;;;-0.70;99.90;;;;;;2073205;28;20025;-64
2021/04/06 03:00:53;;;;;;;14.15;4.88;;;-0.80;99.90;;;;;;2069367;28;20108;-65
2021/04/06 03:01:58;;;;;;;10.10;3.97;;;-0.80;99.90;;;;;;2070905;28;20038;-64
2021/04/06 03:03:01;;;;;;;8.23;3.83;;;-0.80;99.90;;;;;;2079692;28;20516;-64
2021/04/06 03:04:02;;;;;;;12.73;4.55;;;-0.90;99.90;;;;;;2079838;28;20043;-64
2021/04/06 03:05:03;;;;;;;9.38;4.25;;;-0.80;99.90;;;;;;2079779;28;20026;-63
2021/04/06 03:06:14;;;;;;;10.60;4.80;;;-0.90;99.90;;;;;;2080290;28;20477;-63
2021/04/06 03:07:16;;;;;;;10.18;3.65;;;-0.90;99.90;;;;;;2076607;28;20025;-64
2021/04/06 03:08:29;;;;;;;16.10;4.20;;;-0.90;99.90;;;;;;2073246;28;20026;-64
2021/04/06 03:09:30;;;;;;;14.27;4.35;;;-0.90;99.90;;;;;;2075841;28;20042;-64
2021/04/06 03:10:33;;;;;;;7.15;3.10;;;-0.90;99.90;;;;;;2078370;28;20017;-67
2021/04/06 03:11:44;;;;;;;13.00;4.18;;;-0.80;99.90;;;;;;2080270;28;20539;-64
2021/04/06 03:12:47;;;;;;;10.15;3.60;;;-0.80;99.90;;;;;;2080356;28;20072;-64
2021/04/06 03:13:50;;;;;;;13.45;4.60;;;-0.70;99.90;;;;;;2080179;28;20024;-65
2021/04/06 03:14:51;;;;;;;15.85;3.13;;;-0.60;99.90;;;;;;2079025;28;20377;-64
2021/04/06 03:15:52;;;;;;;8.88;3.15;;;-0.60;99.90;;;;;;2071716;28;20029;-64
2021/04/06 03:16:53;;;;;;;15.40;5.20;;;-0.50;99.90;;;;;;2073762;28;20524;-64
2021/04/06 03:17:56;;;;;;;13.57;4.28;;;-0.50;99.90;;;;;;2071313;28;20033;-64
2021/04/06 03:19:02;;;;;;;11.02;3.53;;;-0.40;99.90;;;;;;2077224;28;20028;-64
2021/04/06 03:20:04;;;;;;;7.93;3.28;;;-0.40;99.90;;;;;;2075025;28;20583;-63
2021/04/06 03:21:11;;;;;;;4.13;2.30;;;-0.40;99.90;;;;;;2071049;28;20025;-63
2021/04/06 03:22:13;;;;;;;8.75;3.10;;;-0.30;99.90;;;;;;2071759;28;20276;-64
2021/04/06 03:23:17;;;;;;;12.48;3.38;;;-0.20;99.90;;;;;;2079726;28;20017;-64
2021/04/06 03:24:17;;;;;;;8.90;3.45;;;-0.20;99.90;;;;;;2079745;28;20097;-64
2021/04/06 03:25:20;;;;;;;12.50;3.55;;;-0.20;99.90;;;;;;2074415;28;20421;-64
2021/04/06 03:26:22;;;;;;;;;;;-0.20;99.90;;;;;;2073991;28;20056;-64
2021/04/06 03:27:27;;;;;;;8.18;3.22;;;-0.20;99.90;;;;;;2077212;28;19955;-63
2021/04/06 03:28:39;;;;;;;7.80;3.55;;;-0.20;99.90;;;;;;2079717;28;20083;-64
2021/04/06 03:29:40;;;;;;;10.90;3.80;;;-0.20;99.90;;;;;;2079817;28;20746;-64
2021/04/06 03:30:40;;;;;;;9.57;3.47;;;-0.20;99.90;;;;;;2080425;28;20021;-64
2021/04/06 03:31:41;;;;;;;12.50;3.70;;;-0.30;99.90;;;;;;2073726;28;20109;-64
2021/04/06 03:32:42;;;;;;;7.47;2.80;;;-0.30;99.90;;;;;;2073249;28;20036;-64
2021/04/06 03:33:45;;;;;;;11.52;3.65;;;-0.30;99.90;;;;;;2073298;28;20033;-64
2021/04/06 03:34:46;;;;;;;11.15;3.17;;;-0.30;99.90;;;;;;2080390;28;20035;-64
2021/04/06 03:35:48;;;;;;;9.27;2.92;;;-0.30;99.90;;;;;;2076476;28;20044;-64
2021/04/06 03:36:49;;;;;;;16.65;3.10;;;-0.30;99.90;;;;;;2072162;28;20112;-64
2021/04/06 03:37:51;;;;;;;11.03;3.60;;;-0.40;99.90;;;;;;2076907;28;20112;-64
2021/04/06 03:39:00;;;;;;;8.13;3.25;;;-0.40;99.90;;;;;;2073819;28;20709;-64
2021/04/06 03:40:01;;;;;;;14.05;3.17;;;-0.40;99.90;;;;;;2080504;28;20108;-63
2021/04/06 03:41:02;;;;;;;10.15;3.67;;;-0.40;99.90;;;;;;2080148;28;20601;-64
2021/04/06 03:42:04;;;;;;;15.70;3.85;;;-0.40;99.90;;;;;;2079706;28;20642;-64
2021/04/06 03:43:19;;;;;;;8.60;3.25;;;-0.50;99.90;;;;;;2071024;28;20042;-63
2021/04/06 03:44:27;;;;;;;10.38;2.78;;;-0.50;99.90;;;;;;2074095;28;20030;-63
2021/04/06 03:45:28;;;;;;;8.82;3.53;;;-0.60;99.90;;;;;;2072057;28;20054;-63
2021/04/06 03:46:29;;;;;;;6.15;2.60;;;-0.60;99.90;;;;;;2079692;28;20385;-63
2021/04/06 03:47:57;;;;;;;9.20;2.85;;;-0.70;99.90;;;;;;2079490;28;20037;-64
2021/04/06 03:49:22;;;;;;;10.02;3.33;;;-0.70;99.90;;;;;;2081053;28;20021;-64
2021/04/06 03:50:40;;;;;;;10.85;3.13;;;-0.70;99.90;;;;;;2077722;28;20033;-63
2021/04/06 03:51:48;;;;;;;11.15;3.10;;;-0.80;99.90;;;;;;2073453;28;20497;-63
2021/04/06 03:53:06;;;;;;;8.60;3.13;;;-0.80;99.90;;;;;;2077049;28;20048;-63
2021/04/06 03:54:07;;;;;;;11.43;3.50;;;-0.90;99.90;;;;;;2081284;28;20024;-63
2021/04/06 03:55:11;;;;;;;9.10;3.30;;;-1.00;99.90;;;;;;2081306;28;20026;-63
2021/04/06 03:56:13;;;;;;;9.30;3.05;;;-1.00;99.90;;;;;;2072909;28;20128;-64
2021/04/06 03:57:23;;;;;;;;;;;-1.00;99.90;;;;;;2073935;28;20076;-63
2021/04/06 03:58:27;;;;;;;9.15;3.25;;;-1.10;99.90;;;;;;2076634;28;19970;-64
2021/04/06 03:59:30;;;;;;;7.97;3.70;;;-1.10;99.90;;;;;;2073506;28;20028;-64
2021/04/06 04:00:30;;;;;;;10.02;3.78;;;-1.10;99.90;;;;;;2081114;28;20053;-64
2021/04/06 04:01:31;;;;;;;11.20;3.60;;;-1.20;99.90;;;;;;2080679;28;20049;-63
2021/04/06 04:02:31;;;;;;;10.05;4.15;;;-1.20;99.90;;;;;;2080941;28;20056;-63
2021/04/06 04:03:33;;;;;;;8.23;3.40;;;-1.10;99.90;;;;;;2080837;28;20564;-64
2021/04/06 04:04:36;;;;;;;9.43;3.80;;;-1.10;99.90;;;;;;2080987;28;20033;-63
2021/04/06 04:05:37;;;;;;;9.52;3.80;;;-1.20;99.90;;;;;;2072466;28;20409;-63
2021/04/06 04:06:38;;;;;;;12.75;3.85;;;-1.20;99.90;;;;;;2079723;28;20029;-64
2021/04/06 04:07:39;;;;;;;11.35;4.00;;;-1.20;99.90;;;;;;2080863;28;20033;-63
2021/04/06 04:08:39;;;;;;;9.77;4.03;;;-1.20;99.90;;;;;;2078311;28;20021;-63
2021/04/06 04:09:40;;;;;;;8.32;3.78;;;-1.10;99.90;;;;;;2081041;28;20026;-64
2021/04/06 04:10:41;;;;;;;5.97;3.15;;;-1.20;99.90;;;;;;2080922;28;20030;-63
2021/04/06 04:11:41;;;;;;;9.02;3.45;;;-1.20;99.90;;;;;;2078029;28;20033;-63
2021/04/06 04:12:42;;;;;;;13.45;4.22;;;-1.20;99.90;;;;;;2073191;28;20037;-63
2021/04/06 04:13:43;;;;;;;9.75;3.75;;;-1.20;99.90;;;;;;2080668;28;20025;-63
2021/04/06 04:14:44;;;;;;;12.88;3.45;;;-1.20;99.90;;;;;;2080996;28;20475;-63
2021/04/06 04:15:44;;;;;;;9.75;3.40;;;-1.20;99.90;;;;;;2079653;28;20025;-63
2021/04/06 04:16:45;;;;;;;8.35;2.90;;;-1.30;99.90;;;;;;2081259;28;20480;-63
2021/04/06 04:17:48;;;;;;;8.45;3.47;;;-1.20;99.90;;;;;;2080496;28;20021;-63
2021/04/06 04:18:51;;;;;;;5.82;3.70;;;-1.20;99.90;;;;;;2080629;28;20540;-65
2021/04/06 04:19:52;;;;;;;8.93;2.85;;;-1.20;99.90;;;;;;2081378;28;20022;-63
2021/04/06 04:20:53;;;;;;;9.70;3.10;;;-1.20;99.90;;;;;;2080560;28;20033;-63
2021/04/06 04:21:54;;;;;;;11.25;3.00;;;-1.20;99.90;;;;;;2079192;28;20124;-63
2021/04/06 04:22:54;;;;;;;6.80;2.40;;;-1.20;99.90;;;;;;2073751;28;20049;-64
2021/04/06 04:23:55;;;;;;;7.28;2.67;;;-1.10;99.90;;;;;;2080269;28;20093;-65
2021/04/06 04:24:56;;;;;;;9.38;2.60;;;-1.10;99.90;;;;;;2072624;28;20034;-65
2021/04/06 04:25:56;;;;;;;6.65;2.25;;;-1.10;99.90;;;;;;2080684;28;20022;-63
2021/04/06 04:26:57;;;;;;;12.40;3.08;;;-1.10;99.90;;;;;;2081338;28;20037;-64
2021/04/06 04:27:58;;;;;;;7.95;2.50;;;-1.00;99.90;;;;;;2080220;28;20021;-63
2021/04/06 04:28:59;;;;;;;7.22;2.60;;;-1.00;99.90;;;;;;2079577;28;20017;-63
2021/04/06 04:29:59;;;;;;;6.82;2.58;;;-1.00;99.90;;;;;;2073133;28;20014;-64
2021/04/06 04:31:09;;;;;;;10.90;2.70;;;-0.90;99.90;;;;;;2079780;28;20026;-63
2021/04/06 04:32:13;;;;;;;9.68;2.08;;;-0.80;99.90;;;;;;2077743;28;20030;-63
2021/04/06 04:33:14;;;;;;;7.93;2.08;;;-0.70;99.90;;;;;;2076971;28;20026;-64
2021/04/06 04:34:14;;;;;;;7.85;2.20;;;-0.60;99.90;;;;;;2074865;28;20018;-64
2021/04/06 04:35:15;;;;;;;8.15;2.08;;;-0.50;99.90;;;;;;2073330;28;20026;-63
2021/04/06 04:36:16;;;;;;;15.15;2.15;;;-0.40;99.90;;;;;;2080663;28;20515;-63
2021/04/06 04:37:16;;;;;;;8.48;2.03;;;-0.20;99.90;;;;;;2080449;28;20048;-64
2021/04/06 04:38:17;;;;;;;12.32;2.67;;;-0.20;99.90;;;;;;2081291;28;20022;-63
2021/04/06 04:39:18;;;;;;;7.45;1.80;;;-0.10;99.90;;;;;;2081182;28;20480;-63
2021/04/06 04:40:19;;;;;;;6.38;1.90;;;-0.10;99.90;;;;;;2077632;28;20405;-63
2021/04/06 04:41:20;;;;;;;8.20;2.88;;;0.10;99.90;;;;;;2066814;28;20032;-63
2021/04/06 04:42:20;;;;;;;7.47;2.10;;;0.10;99.90;;;;;;2074289;28;20033;-63
2021/04/06 04:43:21;;;;;;;4.88;1.80;;;0.10;99.90;;;;;;2088921;28;20029;-63
2021/04/06 04:44:22;;;;;;;6.93;2.25;;;0.10;99.90;;;;;;2080479;28;20712;-63
2021/04/06 04:45:23;;;;;;;3.90;1.60;;;0.20;99.90;;;;;;2071045;28;20060;-63
2021/04/06 04:46:24;;;;;;;9.07;1.73;;;0.30;99.90;;;;;;2072213;28;20017;-64
2021/04/06 04:47:25;;;;;;;6.30;2.05;;;0.40;99.90;;;;;;2077208;28;20030;-64
2021/04/06 04:48:26;;;;;;;6.13;1.75;;;0.40;99.90;;;;;;2080558;28;20018;-63
2021/04/06 04:49:26;;;;;;;9.18;2.85;;;0.50;99.90;;;;;;2077737;28;20030;-63
2021/04/06 04:50:27;;;;;;;12.25;3.88;;;0.50;99.90;;;;;;2080418;28;20390;-64
2021/04/06 04:51:28;;;;;;;10.70;2.60;;;0.50;99.90;;;;;;2072788;28;20026;-64
2021/04/06 04:52:29;;;;;;;9.65;2.17;;;0.50;99.90;;;;;;2074337;28;20405;-64
2021/04/06 04:53:29;;;;;;;11.85;2.47;;;0.50;99.90;;;;;;2081294;28;20429;-63
2021/04/06 04:54:30;;;;;;;13.35;1.98;;;0.60;99.90;;;;;;2081068;28;20017;-64
2021/04/06 04:55:31;;;;;;;9.50;1.80;;;0.60;99.90;;;;;;2081373;28;20029;-63
2021/04/06 04:56:31;;;;;;;8.15;2.00;;;0.80;99.90;;;;;;2080160;28;20021;-64
2021/04/06 04:57:32;;;;;;;18.08;2.20;;;0.80;99.90;;;;;;2080615;28;20037;-64
2021/04/06 04:58:33;;;;;;;5.78;1.70;;;0.80;99.90;;;;;;2078581;28;20027;-64
2021/04/06 04:59:33;;;;;;;7.40;1.70;;;0.80;99.90;;;;;;2081208;28;20104;-63
2021/04/06 05:00:34;;;;;;;8.75;1.95;;;0.90;99.90;;;;;;2081184;28;20093;-63
2021/04/06 05:01:36;;;;;;;8.07;2.30;;;0.80;99.90;;;;;;2074911;28;20058;-63
2021/04/06 05:02:37;;;;;;;8.18;1.55;;;0.90;99.90;;;;;;2080318;28;20067;-63
2021/04/06 05:03:38;;;;;;;8.27;2.15;;;1.00;99.90;;;;;;2080419;28;20025;-63
2021/04/06 05:04:39;;;;;;;5.32;1.80;;;1.00;99.90;;;;;;2081248;28;20665;-64
2021/04/06 05:05:39;;;;;;;7.25;1.80;;;1.10;99.90;;;;;;2081074;28;20504;-63
2021/04/06 05:06:40;;;;;;;8.68;1.90;;;1.10;99.90;;;;;;2081131;28;20025;-64
2021/04/06 05:07:41;;;;;;;7.15;1.67;;;1.10;99.90;;;;;;2081006;28;20052;-63
2021/04/06 05:08:42;;;;;;;10.30;1.52;;;1.00;99.90;;;;;;2081283;28;20135;-63
2021/04/06 05:09:42;;;;;;;6.95;2.10;;;1.00;99.90;;;;;;2080418;28;20075;-64
2021/04/06 05:10:43;;;;;;;6.95;1.52;;;1.10;99.90;;;;;;2073013;28;20026;-64
2021/04/06 05:11:44;;;;;;;7.30;2.00;;;1.10;99.90;;;;;;2074853;28;20026;-64
2021/04/06 05:12:48;;;;;;;8.73;1.75;;;1.20;99.90;;;;;;2073494;28;20030;-65
2021/04/06 05:13:50;;;;;;;14.07;2.60;;;1.20;99.90;;;;;;2073924;28;20029;-64
2021/04/06 05:14:51;;;;;;;7.75;1.70;;;1.30;99.90;;;;;;2072863;28;20030;-64
2021/04/06 05:15:53;;;;;;;7.47;1.75;;;1.30;99.90;;;;;;2080646;28;20464;-64
2021/04/06 05:16:54;;;;;;;;;;;1.30;99.90;;;;;;2081073;28;20057;-64
2021/04/06 05:17:54;;;;;;;8.73;2.03;;;1.30;99.90;;;;;;2080526;28;19905;-64
2021/04/06 05:18:55;;;;;;;10.02;2.38;;;1.30;99.90;;;;;;2080654;28;20025;-64
2021/04/06 05:19:56;;;;;;;4.65;1.63;;;1.30;99.90;;;;;;2079916;28;20056;-63
2021/04/06 05:20:57;;;;;;;9.63;1.90;;;1.20;99.90;;;;;;2077221;28;20464;-63
2021/04/06 05:21:57;;;;;;;3.70;1.58;;;1.20;99.90;;;;;;2074637;28;20087;-64
2021/04/06 05:22:58;;;;;;;7.65;1.88;;;1.20;99.90;;;;;;2078798;28;20025;-63
2021/04/06 05:23:59;;;;;;;7.65;2.22;;;1.20;99.90;;;;;;2077712;28;20017;-63
2021/04/06 05:25:00;;;;;;;8.73;3.00;;;1.10;99.90;;;;;;2080451;28;20021;-63
2021/04/06 05:26:00;;;;;;;8.57;3.33;;;1.10;99.90;;;;;;2077675;28;20021;-64
2021/04/06 05:27:01;;;;;;;6.10;2.17;;;1.00;99.90;;;;;;2073219;28;20061;-63
2021/04/06 05:28:02;;;;;;;8.30;1.95;;;1.00;99.90;;;;;;2072933;28;20018;-64